Time;durP1;ratioP1;P1;durP2;ratioP2;P2;SDS_P1;SDS_P2;PMS_P1;PMS_P2;Temp;Humidity;BMP_temperature;BMP_pressure;BME280_temperature;BME280_humidity;BME280_pressure;Samples;Min_cycle;Max_cycle;Signal;HPM_P1;HPM_P2
2022/07/26 06:01:16;;;;;;;;;;;16.30;99.90;;;;;;6152725;23;20208;-64
2022/07/26 06:03:41;;;;;;;;;;;16.40;99.90;;;;;;6159565;23;19939;-73
2022/07/26 06:06:10;;;;;;;;;;;16.40;99.90;;;;;;6159707;23;19916;-73
2022/07/26 06:08:56;;;;;;;;;;;16.40;99.90;;;;;;6135334;23;20296;-73
2022/07/26 06:11:22;;;;;;;;;;;16.50;99.90;;;;;;6160558;23;19919;-72
2022/07/26 06:13:47;;;;;;;;;;;16.60;99.90;;;;;;6160231;23;20286;-74
2022/07/26 06:16:16;;;;;;;;;;;16.70;99.90;;;;;;6111030;23;19959;-74
2022/07/26 06:18:42;;;;;;;;;;;16.80;99.90;;;;;;6160130;23;20241;-75
2022/07/26 06:21:07;;;;;;;;;;;16.90;99.90;;;;;;6135135;23;19931;-77
2022/07/26 06:23:33;;;;;;;;;;;17.00;99.90;;;;;;6135469;23;19920;-76
2022/07/26 06:25:59;;;;;;;;;;;17.00;99.90;;;;;;6135647;23;19912;-75
2022/07/26 06:28:24;;;;;;;;;;;17.00;99.90;;;;;;6160080;23;19935;-72
2022/07/26 06:31:05;;;;;;;;;;;17.10;99.90;;;;;;6137042;23;19923;-69
2022/07/26 06:33:31;;;;;;;;;;;17.20;99.90;;;;;;6159633;23;19912;-68
2022/07/26 06:35:56;;;;;;;;;;;17.20;99.90;;;;;;6160071;23;19927;-70
2022/07/26 06:38:22;;;;;;;;;;;17.20;99.90;;;;;;6160149;23;19916;-72
2022/07/26 06:40:48;;;;;;;;;;;17.00;99.90;;;;;;6182562;23;19966;-67
2022/07/26 06:43:13;;;;;;;;;;;16.80;99.90;;;;;;6134029;23;19920;-65
2022/07/26 06:45:39;;;;;;;;;;;16.70;99.90;;;;;;6185420;23;19923;-67
2022/07/26 06:48:04;;;;;;;;;;;16.50;99.90;;;;;;6133157;23;20366;-68
2022/07/26 06:50:30;;;;;;;;;;;16.30;99.90;;;;;;6133859;23;19923;-69
2022/07/26 06:52:56;;;;;;;;;;;16.20;99.90;;;;;;6133592;23;19920;-69
2022/07/26 06:55:21;;;;;;;;;;;16.10;99.90;;;;;;6133896;23;19916;-70
2022/07/26 06:57:47;;;;;;;;;;;16.10;99.90;;;;;;6133884;23;19999;-68
2022/07/26 07:00:13;;;;;;;;;;;16.10;99.90;;;;;;6159461;23;19916;-68
2022/07/26 07:02:38;;;;;;;;;;;16.00;99.90;;;;;;6128639;23;19924;-70
2022/07/26 07:05:04;;;;;;;;;;;16.00;99.90;;;;;;6073751;23;19917;-70
2022/07/26 07:07:29;;;;;;;;;;;16.20;99.90;;;;;;6127322;23;19943;-69
2022/07/26 07:09:55;;;;;;;;;;;16.30;99.90;;;;;;6101802;23;19920;-68
2022/07/26 07:12:21;;;;;;;;;;;16.40;99.90;;;;;;6102347;23;20000;-67
2022/07/26 07:14:46;;;;;;;;;;;16.40;99.90;;;;;;6101423;23;19940;-67
2022/07/26 07:17:12;;;;;;;;;;;16.40;99.90;;;;;;6128311;23;19984;-68
2022/07/26 07:19:37;;;;;;;;;;;16.50;99.90;;;;;;6079031;23;19917;-69
2022/07/26 07:22:03;;;;;;;;;;;16.40;99.90;;;;;;6102737;23;19924;-69
2022/07/26 07:24:29;;;;;;;;;;;16.50;99.90;;;;;;6079166;23;19979;-68
2022/07/26 07:26:55;;;;;;;;;;;16.50;99.90;;;;;;6103138;23;19917;-69
2022/07/26 07:29:20;;;;;;;;;;;16.60;99.90;;;;;;6102601;23;19920;-68
2022/07/26 07:31:46;;;;;;;;;;;16.70;99.90;;;;;;6103174;23;19921;-69
2022/07/26 07:34:13;;;;;;;;;;;16.80;99.90;;;;;;6079008;23;19917;-68
2022/07/26 07:36:38;;;;;;;;;;;16.80;99.90;;;;;;6078669;23;19916;-66
2022/07/26 07:39:04;;;;;;;;;;;16.90;99.90;;;;;;6102937;23;19917;-70
2022/07/26 07:41:32;;;;;;;;;;;16.80;99.90;;;;;;6103266;23;19917;-69
2022/07/26 07:43:58;;;;;;;;;;;16.80;99.90;;;;;;6078468;23;19968;-70
2022/07/26 07:46:23;;;;;;;;;;;16.80;99.90;;;;;;6103163;23;19920;-69
2022/07/26 07:48:49;;;;;;;;;;;16.90;99.90;;;;;;6102690;23;19917;-68
2022/07/26 07:51:14;;;;;;;;;;;17.00;99.90;;;;;;6128667;23;19947;-69
2022/07/26 07:53:40;;;;;;;;;;;17.10;99.90;;;;;;6078962;23;19923;-68
2022/07/26 07:56:05;;;;;;;;;;;17.20;99.90;;;;;;6128814;23;20258;-69
2022/07/26 07:58:31;;;;;;;;;;;17.30;99.90;;;;;;6102675;23;20003;-69
2022/07/26 08:00:57;;;;;;;;;;;17.40;99.90;;;;;;6102513;23;19927;-69
2022/07/26 08:03:23;;;;;;;;;;;17.60;99.90;;;;;;6102235;23;19956;-68
2022/07/26 08:05:48;;;;;;;;;;;17.70;99.90;;;;;;6102787;23;19959;-68
2022/07/26 08:08:15;;;;;;;;;;;17.70;99.90;;;;;;6078498;23;19920;-66
2022/07/26 08:10:47;;;;;;;;;;;17.70;99.90;;;;;;6127814;23;20328;-74
2022/07/26 08:13:12;;;;;;;;;;;17.50;99.90;;;;;;6076989;23;19917;-72
2022/07/26 08:19:12;;;;;;;;;;;17.40;99.90;;;;;;6127822;23;20327;-78
2022/07/26 08:21:48;;;;;;;;;;;;;;;;;;;;;
2022/07/26 08:31:40;;;;;;;;;;;16.80;99.90;;;;;;6133350;23;19928;-74
2022/07/26 09:18:22;;;;;;;;;;;17.60;99.90;;;;;;6177422;23;19999;-75
2022/07/26 09:51:11;;;;;;;;;;;19.20;95.60;;;;;;6009361;23;19960;-77
2022/07/26 10:10:54;;;;;;;;;;;19.30;95.30;;;;;;6186026;23;20246;-76
2022/07/26 10:23:34;;;;;;;;;;;19.80;94.10;;;;;;6156190;23;19996;-73
2022/07/26 10:26:22;;;;;;;;;;;20.60;94.90;;;;;;6106029;23;19923;-74
2022/07/26 10:28:56;;;;;;;;;;;21.00;92.80;;;;;;6130510;23;19949;-73
2022/07/26 10:52:29;;;;;;;;;;;;;;;;;;;;;
2022/07/26 10:55:42;;;;;;;;;;;;;;;;;;;;;
2022/07/26 10:58:45;;;;;;;;;;;;;;;;;;;;;
2022/07/26 11:08:11;;;;;;;;;;;20.00;93.10;;;;;;5957856;23;19915;-77
2022/07/26 11:10:41;;;;;;;;;;;20.40;94.10;;;;;;6105837;23;19935;-76
2022/07/26 11:13:11;;;;;;;;;;;20.60;93.00;;;;;;6105641;23;19912;-77
2022/07/26 11:15:42;;;;;;;;;;;20.40;93.30;;;;;;6129895;23;20060;-74
2022/07/26 11:18:09;;;;;;;;;;;20.50;92.50;;;;;;6130113;23;19916;-75
2022/07/26 11:20:34;;;;;;;;;;;20.40;92.90;;;;;;6129994;23;19917;-76
2022/07/26 11:24:02;;;;;;;;;;;;;;;;;;;;;
2022/07/26 11:44:06;;;;;;;;;;;20.80;92.90;;;;;;6064235;23;19953;-77
2022/07/26 11:46:33;;;;;;;;;;;21.20;91.80;;;;;;6042527;23;20301;-80
2022/07/26 11:49:33;;;;;;;;;;;21.30;90.80;;;;;;6049771;23;20368;-75
2022/07/26 11:52:02;;;;;;;;;;;21.30;91.30;;;;;;6037603;23;20257;-77
2022/07/26 11:54:29;;;;;;;;;;;21.20;91.60;;;;;;6072303;23;20019;-78
2022/07/26 11:57:02;;;;;;;;;;;21.20;90.70;;;;;;6048233;23;20333;-76
2022/07/26 11:59:30;;;;;;;;;;;21.60;91.00;;;;;;6048354;23;19917;-76
2022/07/26 12:01:56;;;;;;;;;;;21.90;90.00;;;;;;6048538;23;19961;-76
2022/07/26 12:04:23;;;;;;;;;;;21.60;90.10;;;;;;6048337;23;20280;-77
2022/07/26 12:06:58;;;;;;;;;;;21.20;87.70;;;;;;6048921;23;20356;-76
2022/07/26 12:09:33;;;;;;;;;;;21.00;88.20;;;;;;6048773;23;19980;-78
2022/07/26 12:12:01;;;;;;;;;;;21.00;88.90;;;;;;6072468;23;19920;-76
2022/07/26 12:14:37;;;;;;;;;;;21.00;88.60;;;;;;6048249;23;20000;-75
2022/07/26 12:17:09;;;;;;;;;;;21.10;89.20;;;;;;6066649;23;19980;-76
2022/07/26 12:19:38;;;;;;;;;;;20.80;87.40;;;;;;6131143;23;20327;-76
2022/07/26 12:22:21;;;;;;;;;;;21.00;89.40;;;;;;6106914;23;19920;-76
2022/07/26 12:25:01;;;;;;;;;;;20.90;88.20;;;;;;6131488;23;19919;-77
2022/07/26 12:27:31;;;;;;;;;;;21.10;89.30;;;;;;6106037;23;19966;-76
2022/07/26 12:29:59;;;;;;;;;;;21.20;89.10;;;;;;6107517;23;19912;-77
2022/07/26 12:32:36;;;;;;;;;;;21.10;87.00;;;;;;6106857;23;19963;-77
2022/07/26 12:35:09;;;;;;;;;;;21.30;88.40;;;;;;6106985;23;19916;-77
2022/07/26 12:37:55;;;;;;;;;;;21.50;86.40;;;;;;6106747;23;19917;-77
2022/07/26 12:40:24;;;;;;;;;;;21.80;85.60;;;;;;6131245;23;19913;-76
2022/07/26 12:42:50;;;;;;;;;;;21.60;83.30;;;;;;6106469;23;19923;-76
2022/07/26 12:45:19;;;;;;;;;;;21.20;82.40;;;;;;6106914;23;20251;-76
2022/07/26 12:47:46;;;;;;;;;;;21.30;84.10;;;;;;6106915;23;19916;-76
2022/07/26 12:50:13;;;;;;;;;;;21.30;84.20;;;;;;6106842;23;20316;-77
2022/07/26 12:52:39;;;;;;;;;;;21.10;83.30;;;;;;6106221;23;19916;-76
2022/07/26 12:55:15;;;;;;;;;;;21.20;81.50;;;;;;6106695;23;19920;-76
2022/07/26 12:58:01;;;;;;;;;;;21.70;83.60;;;;;;6106525;23;19916;-75
2022/07/26 13:00:32;;;;;;;;;;;21.70;81.10;;;;;;6131287;23;19917;-77
2022/07/26 13:02:58;;;;;;;;;;;21.60;81.10;;;;;;6130681;23;19923;-81
2022/07/26 13:05:26;;;;;;;;;;;21.20;80.90;;;;;;6106461;23;19916;-80
2022/07/26 13:07:53;;;;;;;;;;;21.00;82.50;;;;;;6107043;23;19912;-80
2022/07/26 13:10:18;;;;;;;;;;;20.80;81.20;;;;;;6131347;23;20283;-80
2022/07/26 13:12:44;;;;;;;;;;;20.60;82.90;;;;;;6131034;23;19913;-83
2022/07/26 13:15:10;;;;;;;;;;;20.50;83.10;;;;;;6106728;23;19912;-85
2022/07/26 13:17:35;;;;;;;;;;;20.40;84.20;;;;;;6107811;23;19952;-79
2022/07/26 13:20:01;;;;;;;;;;;20.50;85.80;;;;;;6132037;23;19920;-80
2022/07/26 13:22:27;;;;;;;;;;;20.70;87.40;;;;;;6106665;23;19992;-79
2022/07/26 13:24:52;;;;;;;;;;;20.70;86.60;;;;;;6106884;23;19935;-80
2022/07/26 13:27:18;;;;;;;;;;;20.80;86.60;;;;;;6130769;23;19955;-80
2022/07/26 13:29:43;;;;;;;;;;;20.90;86.60;;;;;;6106294;23;19913;-76
2022/07/26 13:32:09;;;;;;;;;;;20.90;87.00;;;;;;6130833;23;19960;-78
2022/07/26 13:34:34;;;;;;;;;;;20.90;86.10;;;;;;6106185;23;19918;-78
2022/07/26 13:37:00;;;;;;;;;;;21.10;87.90;;;;;;6130572;23;19917;-79
2022/07/26 13:39:26;;;;;;;;;;;21.10;88.70;;;;;;6130733;23;20287;-79
2022/07/26 13:41:52;;;;;;;;;;;21.20;87.50;;;;;;6131187;23;20371;-78
2022/07/26 13:44:18;;;;;;;;;;;21.20;86.00;;;;;;6130564;23;19918;-78
2022/07/26 13:47:11;;;;;;;;;;;21.30;87.80;;;;;;6130972;23;19962;-76
2022/07/26 13:49:40;;;;;;;;;;;21.40;84.70;;;;;;6106715;23;19983;-78
2022/07/26 13:52:06;;;;;;;;;;;21.10;84.20;;;;;;6106111;23;19947;-79
2022/07/26 13:54:33;;;;;;;;;;;20.80;85.40;;;;;;6130605;23;19920;-79
2022/07/26 13:57:01;;;;;;;;;;;20.80;87.40;;;;;;6106029;23;19991;-79
2022/07/26 13:59:27;;;;;;;;;;;21.00;87.10;;;;;;6130334;23;19939;-78
2022/07/26 14:01:53;;;;;;;;;;;21.00;87.10;;;;;;6105885;23;20316;-79
2022/07/26 14:04:20;;;;;;;;;;;21.20;87.90;;;;;;6105985;23;19984;-79
2022/07/26 14:06:45;;;;;;;;;;;21.30;87.60;;;;;;6105887;23;19924;-77
2022/07/26 14:09:11;;;;;;;;;;;21.40;87.20;;;;;;6106145;23;19918;-80
2022/07/26 14:11:37;;;;;;;;;;;21.50;87.20;;;;;;6130362;23;19916;-79
2022/07/26 14:14:03;;;;;;;;;;;22.00;88.20;;;;;;6130255;23;19912;-79
2022/07/26 14:16:29;;;;;;;;;;;22.20;87.70;;;;;;6130217;23;20236;-77
2022/07/26 14:18:56;;;;;;;;;;;22.20;86.90;;;;;;6106255;23;19927;-76
2022/07/26 14:21:22;;;;;;;;;;;22.00;86.50;;;;;;6130172;23;19919;-77
2022/07/26 14:23:48;;;;;;;;;;;21.90;87.20;;;;;;6130551;23;19939;-76
2022/07/26 14:26:14;;;;;;;;;;;21.80;87.00;;;;;;6106508;23;19987;-78
2022/07/26 14:28:39;;;;;;;;;;;21.70;86.30;;;;;;6130307;23;19987;-79
2022/07/26 14:31:05;;;;;;;;;;;21.40;86.90;;;;;;6106326;23;19941;-77
2022/07/26 14:33:31;;;;;;;;;;;21.10;87.80;;;;;;6130044;23;19913;-80
2022/07/26 14:36:03;;;;;;;;;;;20.80;90.00;;;;;;6105585;23;19912;-79
2022/07/26 14:38:28;;;;;;;;;;;20.80;89.50;;;;;;6130160;23;19916;-79
2022/07/26 14:40:56;;;;;;;;;;;20.70;89.80;;;;;;6130255;23;19916;-80
2022/07/26 14:43:23;;;;;;;;;;;20.70;90.30;;;;;;6105588;23;19954;-81
2022/07/26 14:45:49;;;;;;;;;;;20.60;90.50;;;;;;6105618;23;19919;-81
2022/07/26 14:48:17;;;;;;;;;;;20.70;90.80;;;;;;6105978;23;19917;-81
2022/07/26 14:54:11;;;;;;;;;;;20.50;91.20;;;;;;6159317;23;19916;-82
2022/07/26 14:56:36;;;;;;;;;;;20.50;91.60;;;;;;6100707;23;19912;-76
2022/07/26 14:59:02;;;;;;;;;;;20.60;92.30;;;;;;6130038;23;19923;-77
2022/07/26 15:01:27;;;;;;;;;;;20.60;93.00;;;;;;6105879;23;19916;-76
2022/07/26 15:03:53;;;;;;;;;;;20.40;94.00;;;;;;6105867;23;19987;-69
2022/07/26 15:06:19;;;;;;;;;;;20.20;93.60;;;;;;6130553;23;19916;-69
2022/07/26 15:08:44;;;;;;;;;;;20.20;93.70;;;;;;6130274;23;19920;-68
2022/07/26 15:11:10;;;;;;;;;;;20.30;93.70;;;;;;6156437;23;20283;-68
2022/07/26 15:13:35;;;;;;;;;;;20.20;93.30;;;;;;6130871;23;19923;-69
2022/07/26 15:16:01;;;;;;;;;;;20.10;93.40;;;;;;6105857;23;19988;-69
2022/07/26 15:18:26;;;;;;;;;;;19.90;94.10;;;;;;6130347;23;19917;-69
2022/07/26 15:20:52;;;;;;;;;;;20.10;94.00;;;;;;6130691;23;19916;-69
2022/07/26 15:23:18;;;;;;;;;;;20.20;93.40;;;;;;6132043;23;19917;-69
2022/07/26 15:25:43;;;;;;;;;;;20.20;92.70;;;;;;6132288;23;19967;-69
2022/07/26 15:28:09;;;;;;;;;;;20.20;92.20;;;;;;6107950;23;19916;-69
2022/07/26 15:30:35;;;;;;;;;;;20.60;92.10;;;;;;6107785;23;19920;-69
2022/07/26 15:33:00;;;;;;;;;;;20.60;91.80;;;;;;6132155;23;19955;-70
2022/07/26 15:35:27;;;;;;;;;;;20.70;91.60;;;;;;6108095;23;19966;-69
2022/07/26 15:37:52;;;;;;;;;;;20.70;91.40;;;;;;6107966;23;19917;-69
2022/07/26 15:40:19;;;;;;;;;;;21.00;91.60;;;;;;6107825;23;20312;-69
2022/07/26 15:42:47;;;;;;;;;;;21.50;91.40;;;;;;6132177;23;19920;-69
2022/07/26 15:45:13;;;;;;;;;;;22.10;90.30;;;;;;6107656;23;20247;-69
2022/07/26 15:47:39;;;;;;;;;;;22.20;88.10;;;;;;6107740;23;19983;-70
2022/07/26 15:50:06;;;;;;;;;;;22.30;88.90;;;;;;6107499;23;19920;-70
2022/07/26 15:52:32;;;;;;;;;;;22.20;87.50;;;;;;6132141;23;20324;-67
2022/07/26 15:54:57;;;;;;;;;;;21.30;88.40;;;;;;6131754;23;19916;-68
2022/07/26 15:57:23;;;;;;;;;;;21.10;90.70;;;;;;6131977;23;19967;-68
2022/07/26 15:59:48;;;;;;;;;;;20.90;90.90;;;;;;6107496;23;19939;-68
2022/07/26 16:02:14;;;;;;;;;;;20.80;90.90;;;;;;6107573;23;19921;-67
2022/07/26 16:04:40;;;;;;;;;;;20.70;91.30;;;;;;6157709;23;19923;-67
2022/07/26 16:07:05;;;;;;;;;;;20.80;91.20;;;;;;6107499;23;19916;-67
2022/07/26 16:09:31;;;;;;;;;;;20.70;91.10;;;;;;6157931;23;19923;-67
2022/07/26 16:11:56;;;;;;;;;;;20.70;91.10;;;;;;6131319;23;19955;-66
2022/07/26 16:14:22;;;;;;;;;;;20.70;91.10;;;;;;6157495;23;19980;-67
2022/07/26 16:16:47;;;;;;;;;;;20.50;90.60;;;;;;6131593;23;20342;-68
2022/07/26 16:19:13;;;;;;;;;;;20.50;91.30;;;;;;6157865;23;20007;-66
2022/07/26 16:21:39;;;;;;;;;;;20.40;91.50;;;;;;6131672;23;19952;-66
2022/07/26 16:24:05;;;;;;;;;;;20.50;90.70;;;;;;6107409;23;19991;-67
2022/07/26 16:26:31;;;;;;;;;;;20.50;90.90;;;;;;6083035;23;19944;-66
2022/07/26 16:28:58;;;;;;;;;;;20.50;90.90;;;;;;6131517;23;19916;-66
2022/07/26 16:31:23;;;;;;;;;;;20.40;91.10;;;;;;6083122;23;19916;-67
2022/07/26 16:33:49;;;;;;;;;;;20.20;91.10;;;;;;6106863;23;20328;-66
2022/07/26 16:36:14;;;;;;;;;;;20.00;91.60;;;;;;6157465;23;19937;-66
2022/07/26 16:38:40;;;;;;;;;;;19.90;91.60;;;;;;6138134;23;19961;-66
2022/07/26 16:41:05;;;;;;;;;;;19.90;92.10;;;;;;6107188;23;20316;-67
2022/07/26 16:43:31;;;;;;;;;;;19.90;92.40;;;;;;6158027;23;20256;-67
2022/07/26 16:45:56;;;;;;;;;;;20.00;92.70;;;;;;6083306;23;19916;-67
2022/07/26 16:48:22;;;;;;;;;;;19.90;93.50;;;;;;6107159;23;20316;-68
2022/07/26 16:50:47;;;;;;;;;;;19.70;93.60;;;;;;6157490;23;19924;-67
2022/07/26 16:53:13;;;;;;;;;;;19.60;93.20;;;;;;6107056;23;19924;-67
2022/07/26 16:55:38;;;;;;;;;;;19.40;93.70;;;;;;6131459;23;19923;-67
2022/07/26 16:58:04;;;;;;;;;;;19.20;94.20;;;;;;6157606;23;19968;-66
2022/07/26 17:00:30;;;;;;;;;;;19.20;94.20;;;;;;6106906;23;19983;-68
2022/07/26 17:02:55;;;;;;;;;;;19.20;94.40;;;;;;6131342;23;20247;-67
2022/07/26 17:05:21;;;;;;;;;;;19.10;94.70;;;;;;6131240;23;19923;-66
2022/07/26 17:07:46;;;;;;;;;;;18.90;95.10;;;;;;6105728;23;19917;-67
2022/07/26 17:10:12;;;;;;;;;;;18.70;94.90;;;;;;6129335;23;20283;-70
2022/07/26 17:12:38;;;;;;;;;;;18.70;95.90;;;;;;6130523;23;19963;-68
2022/07/26 17:15:04;;;;;;;;;;;18.50;96.50;;;;;;6130590;23;20345;-68
2022/07/26 17:17:30;;;;;;;;;;;18.50;97.20;;;;;;6131459;23;19916;-67
2022/07/26 17:19:55;;;;;;;;;;;18.30;99.90;;;;;;6157213;23;19916;-67
2022/07/26 17:22:21;;;;;;;;;;;18.10;99.90;;;;;;6131207;23;19917;-67
2022/07/26 17:24:47;;;;;;;;;;;18.10;99.90;;;;;;6130804;23;20235;-67
2022/07/26 17:27:13;;;;;;;;;;;18.10;99.90;;;;;;6157020;23;19917;-68
2022/07/26 17:29:38;;;;;;;;;;;18.00;99.90;;;;;;6157302;23;19919;-68
2022/07/26 17:32:04;;;;;;;;;;;17.80;99.90;;;;;;6130869;23;19924;-68
2022/07/26 17:34:30;;;;;;;;;;;17.80;99.90;;;;;;6156675;23;20113;-68
2022/07/26 17:36:57;;;;;;;;;;;17.60;99.90;;;;;;6130752;23;19912;-68
2022/07/26 17:39:23;;;;;;;;;;;17.40;99.90;;;;;;6106252;23;20320;-68
2022/07/26 17:41:49;;;;;;;;;;;17.30;99.90;;;;;;6131155;23;19919;-68
2022/07/26 17:44:14;;;;;;;;;;;17.10;99.90;;;;;;6130745;23;20229;-68
2022/07/26 17:46:40;;;;;;;;;;;17.10;99.90;;;;;;6130597;23;19951;-68
2022/07/26 17:49:06;;;;;;;;;;;17.00;99.90;;;;;;6131249;23;19912;-68
2022/07/26 17:51:32;;;;;;;;;;;17.00;99.90;;;;;;6106588;23;20339;-67
2022/07/26 17:53:57;;;;;;;;;;;17.00;99.90;;;;;;6105868;23;20002;-68
2022/07/26 17:56:23;;;;;;;;;;;17.10;99.90;;;;;;6106618;23;19912;-67
2022/07/26 17:58:48;;;;;;;;;;;17.20;99.90;;;;;;6157041;23;19979;-66
2022/07/26 18:01:14;;;;;;;;;;;17.20;99.90;;;;;;6106519;23;19924;-65
2022/07/26 18:03:39;;;;;;;;;;;17.30;99.90;;;;;;6105994;23;19916;-66
2022/07/26 18:06:05;;;;;;;;;;;17.40;99.90;;;;;;6131029;23;19964;-66
2022/07/26 18:08:31;;;;;;;;;;;17.50;99.90;;;;;;6130471;23;20350;-67
2022/07/26 18:10:56;;;;;;;;;;;17.60;99.90;;;;;;6082131;23;20307;-67
2022/07/26 18:13:23;;;;;;;;;;;17.60;99.90;;;;;;6130359;23;19916;-66
2022/07/26 18:15:50;;;;;;;;;;;17.60;99.90;;;;;;6105534;23;19913;-66
2022/07/26 18:18:16;;;;;;;;;;;17.50;99.90;;;;;;6154846;23;19916;-65
2022/07/26 18:20:42;;;;;;;;;;;17.60;99.90;;;;;;6156493;23;19979;-66
2022/07/26 18:23:07;;;;;;;;;;;17.50;99.90;;;;;;6105310;23;20264;-65
2022/07/26 18:25:33;;;;;;;;;;;17.50;99.90;;;;;;6129972;23;19964;-65
2022/07/26 18:27:59;;;;;;;;;;;17.40;99.80;;;;;;6129873;23;20248;-65
2022/07/26 18:30:24;;;;;;;;;;;17.40;99.90;;;;;;6129810;23;19916;-65
2022/07/26 18:32:50;;;;;;;;;;;17.40;99.70;;;;;;6105518;23;19912;-65
2022/07/26 18:35:15;;;;;;;;;;;17.30;99.80;;;;;;6129803;23;19920;-65
2022/07/26 18:37:41;;;;;;;;;;;17.20;99.60;;;;;;6130164;23;19923;-65
2022/07/26 18:40:10;;;;;;;;;;;17.20;99.60;;;;;;6129838;23;19917;-76
2022/07/26 18:42:47;;;;;;;;;;;17.10;99.90;;;;;;6105089;23;20330;-68
2022/07/26 18:48:35;;;;;;;;;;;17.10;99.90;;;;;;6154293;23;19911;-72
2022/07/26 18:51:01;;;;;;;;;;;17.00;99.90;;;;;;6102779;23;19943;-72
2022/07/26 18:53:27;;;;;;;;;;;17.00;99.90;;;;;;6103642;23;19912;-71
2022/07/26 18:59:35;;;;;;;;;;;;;;;;;;;;;
2022/07/26 19:02:34;;;;;;;;;;;16.70;99.90;;;;;;6104751;23;20374;-68
2022/07/26 19:16:21;;;;;;;;;;;;;;;;;;;;;
2022/07/26 19:22:54;;;;;;;;;;;16.00;99.90;;;;;;6018437;23;19925;-68
2022/07/26 19:25:49;;;;;;;;;;;15.90;99.90;;;;;;6037360;23;20344;-68
2022/07/26 19:28:22;;;;;;;;;;;16.00;99.90;;;;;;6037125;23;20308;-68
2022/07/26 19:30:54;;;;;;;;;;;16.00;99.90;;;;;;6095837;23;19993;-67
2022/07/26 19:33:20;;;;;;;;;;;16.00;99.90;;;;;;6155999;23;19959;-68
2022/07/26 19:35:58;;;;;;;;;;;15.90;99.90;;;;;;6133540;23;19917;-68
2022/07/26 19:38:24;;;;;;;;;;;15.90;99.90;;;;;;6131324;23;20004;-68
2022/07/26 19:48:03;;;;;;;;;;;15.90;99.90;;;;;;6152810;23;19924;-72
2022/07/26 19:50:50;;;;;;;;;;;15.90;99.90;;;;;;6128382;23;19975;-69
2022/07/26 19:53:35;;;;;;;;;;;15.80;99.90;;;;;;6123306;23;19976;-71
2022/07/26 19:56:01;;;;;;;;;;;15.80;99.90;;;;;;6099545;23;20391;-69
2022/07/26 19:58:29;;;;;;;;;;;15.80;99.90;;;;;;6098105;23;19917;-75
2022/07/26 20:01:03;;;;;;;;;;;15.80;99.90;;;;;;6075606;23;19940;-73
2022/07/26 20:03:32;;;;;;;;;;;15.70;99.90;;;;;;6099491;23;19924;-73
2022/07/26 20:06:17;;;;;;;;;;;15.70;99.90;;;;;;6099252;23;19948;-71
2022/07/26 20:08:44;;;;;;;;;;;15.70;99.90;;;;;;6098791;23;19920;-74
2022/07/26 20:11:23;;;;;;;;;;;15.60;99.90;;;;;;6075439;23;19920;-75
2022/07/26 20:14:29;;;;;;;;;;;15.60;99.90;;;;;;6102134;23;19974;-76
2022/07/26 20:56:59;;;;;;;;;;;15.40;99.90;;;;;;6126911;23;19991;-71
2022/07/26 20:59:24;;;;;;;;;;;15.40;99.90;;;;;;6077431;23;20380;-72
2022/07/26 21:01:50;;;;;;;;;;;15.40;99.90;;;;;;6101672;23;19917;-74
2022/07/26 21:04:15;;;;;;;;;;;15.40;99.90;;;;;;6077239;23;20243;-72
2022/07/26 21:06:41;;;;;;;;;;;15.40;99.90;;;;;;6077665;23;19917;-71
2022/07/26 21:09:07;;;;;;;;;;;15.40;99.90;;;;;;6053607;23;19916;-70
2022/07/26 21:11:33;;;;;;;;;;;15.40;99.90;;;;;;6077649;23;19917;-73
2022/07/26 21:13:59;;;;;;;;;;;15.30;99.90;;;;;;6076641;23;20237;-72
2022/07/26 21:16:24;;;;;;;;;;;15.30;99.90;;;;;;6100864;23;19972;-71
2022/07/26 21:18:50;;;;;;;;;;;15.20;99.90;;;;;;6100614;23;19927;-72
2022/07/26 21:21:15;;;;;;;;;;;15.20;99.90;;;;;;6100874;23;20388;-72
2022/07/26 21:23:41;;;;;;;;;;;15.10;99.90;;;;;;6077140;23;19917;-71
2022/07/26 21:26:07;;;;;;;;;;;15.10;99.90;;;;;;6101355;23;19999;-72
2022/07/26 21:28:33;;;;;;;;;;;15.00;99.90;;;;;;6077352;23;19917;-68
2022/07/26 21:30:58;;;;;;;;;;;15.00;99.90;;;;;;6077325;23;19948;-69
2022/07/26 21:33:24;;;;;;;;;;;14.90;99.90;;;;;;6077294;23;19988;-69
2022/07/26 21:35:50;;;;;;;;;;;14.90;99.90;;;;;;6101179;23;20276;-70
2022/07/26 21:38:15;;;;;;;;;;;14.80;99.90;;;;;;6101270;23;19924;-69
2022/07/26 21:40:41;;;;;;;;;;;14.80;99.90;;;;;;6101139;23;19917;-70
2022/07/26 21:43:06;;;;;;;;;;;14.70;99.90;;;;;;6100916;23;19964;-70
2022/07/26 21:45:32;;;;;;;;;;;14.70;99.90;;;;;;6077068;23;20011;-70
2022/07/26 21:47:57;;;;;;;;;;;14.60;99.90;;;;;;6101267;23;20009;-71
2022/07/26 21:50:23;;;;;;;;;;;14.60;99.90;;;;;;6101505;23;19966;-71
2022/07/26 21:52:52;;;;;;;;;;;14.50;99.90;;;;;;6128019;23;19917;-78
2022/07/26 21:55:37;;;;;;;;;;;14.50;99.90;;;;;;6107610;23;19927;-82
2022/07/26 21:58:06;;;;;;;;;;;14.50;99.90;;;;;;6077896;23;20027;-80
2022/07/26 22:00:38;;;;;;;;;;;14.30;99.90;;;;;;6078033;23;19940;-83
2022/07/26 22:03:04;;;;;;;;;;;14.30;99.90;;;;;;6077433;23;20379;-82
2022/07/26 22:05:40;;;;;;;;;;;14.30;99.90;;;;;;6077236;23;19913;-82
2022/07/26 22:08:12;;;;;;;;;;;14.30;99.90;;;;;;6055228;23;20335;-82
2022/07/26 22:10:45;;;;;;;;;;;14.20;99.90;;;;;;6077411;23;19942;-82
2022/07/26 22:13:14;;;;;;;;;;;14.20;99.90;;;;;;6101021;23;20017;-81
2022/07/26 22:15:42;;;;;;;;;;;14.20;99.90;;;;;;6077215;23;19917;-81
2022/07/26 22:18:11;;;;;;;;;;;14.20;99.90;;;;;;6077165;23;19920;-82
2022/07/26 22:20:42;;;;;;;;;;;14.20;99.90;;;;;;6077898;23;20291;-82
2022/07/26 22:23:17;;;;;;;;;;;14.10;99.90;;;;;;6077234;23;20313;-81
2022/07/26 22:25:43;;;;;;;;;;;14.20;99.90;;;;;;6077126;23;20289;-81
2022/07/26 22:28:17;;;;;;;;;;;14.20;99.90;;;;;;6077170;23;19959;-81
2022/07/26 22:30:45;;;;;;;;;;;14.20;99.90;;;;;;6077244;23;19913;-81
2022/07/26 22:33:14;;;;;;;;;;;14.30;99.90;;;;;;6077399;23;19963;-81
2022/07/26 22:35:44;;;;;;;;;;;14.30;99.90;;;;;;6076680;23;19983;-84
2022/07/26 22:38:15;;;;;;;;;;;14.40;99.90;;;;;;6076904;23;20251;-82
2022/07/26 22:41:24;;;;;;;;;;;14.40;99.90;;;;;;6077375;23;20382;-81
2022/07/26 22:43:49;;;;;;;;;;;14.40;99.90;;;;;;6098579;23;20313;-83
2022/07/26 22:46:17;;;;;;;;;;;14.50;99.90;;;;;;6077656;23;19962;-81
2022/07/26 22:48:43;;;;;;;;;;;14.50;99.90;;;;;;6100964;23;19927;-83
2022/07/26 22:51:11;;;;;;;;;;;14.50;99.90;;;;;;6077417;23;19913;-82
2022/07/26 22:53:36;;;;;;;;;;;14.60;99.90;;;;;;6075704;23;19984;-82
2022/07/26 22:56:02;;;;;;;;;;;14.60;99.90;;;;;;6076188;23;20402;-81
2022/07/26 22:58:38;;;;;;;;;;;14.70;99.90;;;;;;6077098;23;20264;-82
2022/07/26 23:01:04;;;;;;;;;;;14.70;99.90;;;;;;6054696;23;19917;-82
2022/07/26 23:03:35;;;;;;;;;;;14.70;99.90;;;;;;6077106;23;19913;-82
2022/07/26 23:06:06;;;;;;;;;;;14.60;99.90;;;;;;6076869;23;19952;-81
2022/07/26 23:08:33;;;;;;;;;;;14.60;99.90;;;;;;6076482;23;19913;-82
2022/07/26 23:11:02;;;;;;;;;;;14.50;99.90;;;;;;6077211;23;19913;-82
2022/07/26 23:13:44;;;;;;;;;;;14.60;99.90;;;;;;6077651;23;19935;-83
2022/07/26 23:16:10;;;;;;;;;;;14.60;99.90;;;;;;6077196;23;19995;-83
2022/07/26 23:18:44;;;;;;;;;;;14.60;99.90;;;;;;6078834;23;19964;-82
2022/07/26 23:21:15;;;;;;;;;;;14.60;99.90;;;;;;6077562;23;19948;-83
2022/07/26 23:23:43;;;;;;;;;;;14.80;99.90;;;;;;6077210;23;19920;-82
2022/07/26 23:26:09;;;;;;;;;;;14.60;99.90;;;;;;6077118;23;19913;-83
2022/07/26 23:28:35;;;;;;;;;;;14.60;99.90;;;;;;6076932;23;19913;-81
2022/07/26 23:31:10;;;;;;;;;;;14.60;99.90;;;;;;6077419;23;20379;-82
2022/07/26 23:33:44;;;;;;;;;;;14.70;99.90;;;;;;6097022;23;19912;-84
2022/07/26 23:36:12;;;;;;;;;;;14.60;99.90;;;;;;6075408;23;19921;-82
2022/07/26 23:38:41;;;;;;;;;;;14.60;99.90;;;;;;6076329;23;19945;-84
2022/07/26 23:41:15;;;;;;;;;;;14.60;99.90;;;;;;6078878;23;19944;-81
2022/07/26 23:43:49;;;;;;;;;;;14.50;99.90;;;;;;6079381;23;19913;-82
2022/07/26 23:46:15;;;;;;;;;;;14.60;99.90;;;;;;6078396;23;19913;-84
2022/07/26 23:48:47;;;;;;;;;;;14.40;99.90;;;;;;6079175;23;19992;-81
2022/07/26 23:51:16;;;;;;;;;;;14.30;99.90;;;;;;6078816;23;19948;-84
2022/07/26 23:53:44;;;;;;;;;;;14.30;99.90;;;;;;6078682;23;19920;-83
2022/07/26 23:56:10;;;;;;;;;;;14.30;99.90;;;;;;6078156;23;20378;-79
2022/07/26 23:58:39;;;;;;;;;;;14.20;99.90;;;;;;6080869;23;19952;-83
